Huvudsida
METAR-TAF:

METAR-TAF

Flygplatser :

Rom-Ciampino flygplats

Rom Ciampino, Italien

latitud: 41-47N, longitud: 012-35E, höjd: 129 m

Aktuellt väderrapport

Denna rapport gjordes för 39 minuter sedan, klockan 20:50 UTC
Vind 3 kt från ost/sydost, varierande mellan ost och syd/sydost
Temperatur 7°C
Fuktighet 81%
Tryck 1012 hPa
Sikt 10 km eller mer
Inga moln under 1 500 m eller inga cumulonimbus

METAR: LIRA 142050Z 12003KT 100V160 CAVOK 07/04 Q1012

Tid: 22:29 (21:29 UTC)

Väderprognos

Denna rapport gjordes för 4 timmar och 29 minuter sedan, klockan 17:00 UTC
Prognos gäller från 14 kl. 18 UTC till 15 kl. 18 UTC
Vind 5 kt varierande vindriktning
Sikt 10 km eller mer
Inga moln under 1 500 m eller inga cumulonimbus
Blir
från 15 kl. 07 UTC till 15 kl. 09 UTC
Vind 10 kt från syd/sydost

TAF: LIRA 141700Z 1418/1518 VRB05KT CAVOK BECMG 1507/1509 15010KT

Aktuella väderrapporter och prognoser från 4000 flygplatser (METAR- och TAF-rapporter).

De tillgängliga stationerna syns som gula och röda prickar på kartan.

För musen över prickarna för att se namnen på stationerna.

Klicka sedan för att få väderrapporter och prognoser.

För att ändra kartan: Klicka på de gröna knapparna med ett svart kors på för att zooma in; den gröna knappen med ett streck på för att zooma ut; eller på de gröna pilarna för angränsande kartor.


METAR-TAF: